Time;durP1;ratioP1;P1;durP2;ratioP2;P2;SDS_P1;SDS_P2;PMS_P1;PMS_P2;Temp;Humidity;BMP_temperature;BMP_pressure;BME280_temperature;BME280_humidity;BME280_pressure;Samples;Min_cycle;Max_cycle;Signal;HPM_P1;HPM_P2
2022/12/14 00:01:18;;;;;;;59.40;23.50;;;;;;;-3.01;58.99;99520.41;4400889;32;20114;-95
2022/12/14 00:03:44;;;;;;;53.03;22.13;;;;;;;-3.00;58.99;99512.81;4413626;32;20074;-96
2022/12/14 00:06:21;;;;;;;53.35;21.40;;;;;;;-2.78;59.00;99503.84;4389192;32;20139;-95
2022/12/14 00:08:48;;;;;;;48.85;20.23;;;;;;;-2.50;59.02;99502.62;4408175;32;20116;-95
2022/12/14 00:11:14;;;;;;;52.20;20.65;;;;;;;-2.41;59.03;99497.66;4389319;32;20144;-96
2022/12/14 00:13:40;;;;;;;49.72;21.45;;;;;;;-2.44;59.03;99496.75;4398612;32;20766;-95
2022/12/14 00:16:10;;;;;;;44.00;19.08;;;;;;;-2.34;59.03;99486.75;4401812;32;20885;-96
2022/12/14 00:19:04;;;;;;;47.25;18.55;;;;;;;-2.17;59.05;99489.53;4413880;32;20081;-95
2022/12/14 00:21:29;;;;;;;44.17;17.37;;;;;;;-2.18;59.04;99491.22;4416782;32;20128;-95
2022/12/14 00:23:56;;;;;;;38.70;17.48;;;;;;;-2.22;59.05;99491.16;4401810;32;20371;-94
2022/12/14 00:26:30;;;;;;;42.50;17.80;;;;;;;-1.97;59.05;99489.81;4399915;32;20093;-94
2022/12/14 00:28:55;;;;;;;40.10;16.23;;;;;;;-1.90;59.05;99495.00;4390365;32;20117;-96
2022/12/14 00:31:21;;;;;;;42.17;16.58;;;;;;;-1.80;59.07;99495.16;4404783;32;20136;-94
2022/12/14 00:33:46;;;;;;;42.30;16.67;;;;;;;-1.66;59.08;99499.59;4404327;32;20143;-95
2022/12/14 00:36:13;;;;;;;39.05;16.65;;;;;;;-1.59;59.08;99496.28;4408737;32;20090;-94
2022/12/14 00:38:39;;;;;;;43.45;17.92;;;;;;;-1.34;59.09;99491.47;4384659;32;20094;-93
2022/12/14 00:41:05;;;;;;;45.08;17.62;;;;;;;-1.36;59.09;99495.72;4400281;32;20133;-94
2022/12/14 00:43:33;;;;;;;43.45;18.45;;;;;;;-1.35;59.09;99489.78;4398225;32;20140;-94
2022/12/14 00:46:00;;;;;;;41.47;16.67;;;;;;;-1.37;59.09;99487.19;4404586;32;20112;-96
2022/12/14 00:48:26;;;;;;;42.53;17.80;;;;;;;-1.15;59.11;99493.41;4392702;32;20116;-96
2022/12/14 00:50:55;;;;;;;41.78;17.92;;;;;;;-1.13;59.11;99499.38;4391992;32;20102;-96
2022/12/14 00:53:28;;;;;;;50.00;18.77;;;;;;;-1.01;59.12;99504.59;4412816;32;20117;-96
2022/12/14 00:55:54;;;;;;;41.65;18.73;;;;;;;-1.03;59.11;99501.19;4408252;32;20184;-95
2022/12/14 00:58:26;;;;;;;36.40;16.52;;;;;;;-0.94;59.12;99503.84;4415108;32;20062;-96
2022/12/14 01:01:05;;;;;;;39.38;17.02;;;;;;;-0.87;59.12;99501.34;4414597;32;20108;-96
2022/12/14 01:03:30;;;;;;;41.08;18.33;;;;;;;-0.80;59.12;99503.09;4396901;32;20157;-95
2022/12/14 01:05:56;;;;;;;40.53;16.87;;;;;;;-0.99;59.11;99495.25;4409640;32;20136;-96
2022/12/14 01:08:23;;;;;;;38.92;17.20;;;;;;;-0.83;59.12;99506.50;4408326;32;20161;-96
2022/12/14 01:11:06;;;;;;;43.60;17.95;;;;;;;-0.82;59.12;99503.09;4422796;32;20109;-95
2022/12/14 01:13:33;;;;;;;43.03;17.27;;;;;;;-0.80;59.12;99500.56;4428541;32;20078;-96
2022/12/14 01:16:13;;;;;;;45.65;17.87;;;;;;;-0.94;59.12;99501.28;4414129;32;20093;-94
2022/12/14 01:18:41;;;;;;;44.08;17.35;;;;;;;-0.85;59.13;99505.63;4420889;32;20106;-95
2022/12/14 01:21:16;;;;;;;54.05;18.77;;;;;;;-0.92;59.12;99506.41;4420849;32;20074;-96
2022/12/14 01:23:47;;;;;;;43.90;17.50;;;;;;;-0.75;59.13;99509.12;4394532;32;20097;-96
2022/12/14 01:26:26;;;;;;;39.63;18.55;;;;;;;-0.69;59.13;99501.53;4389045;32;20117;-96
2022/12/14 01:28:57;;;;;;;46.20;19.00;;;;;;;-1.04;59.10;99517.34;4402180;32;20097;-94
2022/12/14 01:31:24;;;;;;;37.83;17.48;;;;;;;-0.93;59.12;99513.22;4417287;32;20159;-94
2022/12/14 01:33:50;;;;;;;40.28;17.75;;;;;;;-0.85;59.12;99508.19;4397340;32;20105;-95
2022/12/14 01:36:17;;;;;;;41.35;17.77;;;;;;;-0.74;59.12;99498.91;4403146;32;20137;-95
2022/12/14 01:38:42;;;;;;;48.80;18.65;;;;;;;-0.76;59.13;99503.16;4401359;32;20443;-95
2022/12/14 01:41:11;;;;;;;36.90;17.87;;;;;;;-0.67;59.13;99495.59;4403769;32;20153;-96
2022/12/14 01:43:46;;;;;;;46.00;17.58;;;;;;;-0.74;59.12;99495.50;4401742;32;20120;-94
2022/12/14 01:46:12;;;;;;;47.88;19.77;;;;;;;-0.79;59.13;99492.03;4416227;32;20146;-96
2022/12/14 01:48:40;;;;;;;39.63;16.92;;;;;;;-0.75;59.13;99488.66;4389852;32;20090;-94
2022/12/14 01:51:05;;;;;;;46.10;19.12;;;;;;;-0.70;59.13;99475.13;4406077;32;20721;-94
2022/12/14 01:53:37;;;;;;;45.55;18.48;;;;;;;-0.82;59.12;99484.34;4392045;32;20103;-93
2022/12/14 01:56:02;;;;;;;42.72;17.98;;;;;;;-0.62;59.13;99476.03;4403807;32;20090;-95
2022/12/14 01:58:28;;;;;;;43.00;16.87;;;;;;;-0.80;59.12;99480.13;4399256;32;20128;-95
2022/12/14 02:00:54;;;;;;;36.42;16.67;;;;;;;-0.76;59.13;99480.16;4399042;32;20467;-96
2022/12/14 02:03:47;;;;;;;38.38;17.08;;;;;;;-0.75;59.13;99478.44;4409414;32;20168;-96
2022/12/14 02:06:25;;;;;;;41.78;15.63;;;;;;;-0.70;59.14;99461.47;4412209;32;20129;-94
2022/12/14 02:08:54;;;;;;;33.22;15.65;;;;;;;-0.62;59.13;99468.34;4388697;32;20189;-95
2022/12/14 02:11:52;;;;;;;37.50;16.10;;;;;;;-0.85;59.12;99472.41;4387967;32;20102;-95
2022/12/14 02:14:17;;;;;;;39.33;16.83;;;;;;;-0.86;59.12;99475.81;4394176;32;20105;-94
2022/12/14 02:16:43;;;;;;;40.42;15.93;;;;;;;-0.92;59.12;99470.66;4392580;32;20488;-95
2022/12/14 02:19:11;;;;;;;45.20;17.33;;;;;;;-0.79;59.13;99469.03;4397979;32;20141;-94
2022/12/14 02:22:14;;;;;;;42.75;17.30;;;;;;;-0.72;59.12;99468.25;4372399;32;20118;-96
2022/12/14 02:25:01;;;;;;;34.45;15.98;;;;;;;-0.72;59.13;99458.88;4431624;32;20128;-95
2022/12/14 02:28:10;;;;;;;49.47;18.40;;;;;;;-0.79;59.13;99467.34;4406067;32;20059;-95
2022/12/14 02:30:39;;;;;;;43.75;16.42;;;;;;;-0.71;59.13;99469.97;4402089;32;20090;-96
2022/12/14 02:33:30;;;;;;;42.72;16.67;;;;;;;-0.91;59.12;99467.25;4403643;32;20071;-95
2022/12/14 02:36:19;;;;;;;40.75;17.00;;;;;;;-1.01;59.12;99466.28;4408082;32;20074;-96
2022/12/14 02:39:19;;;;;;;41.97;18.15;;;;;;;-1.10;59.10;99463.66;4406752;32;20058;-96
2022/12/14 02:41:50;;;;;;;;;;;;;;;-0.93;59.12;99459.56;4409875;32;20162;-95
2022/12/14 02:44:18;;;;;;;38.33;15.63;;;;;;;-0.94;59.12;99445.09;4416953;32;20052;-96
2022/12/14 02:47:06;;;;;;;52.15;17.95;;;;;;;-1.06;59.11;99450.06;4422770;32;20097;-96
2022/12/14 02:49:48;;;;;;;44.85;16.17;;;;;;;-1.10;59.11;99443.22;4421132;32;20100;-96
2022/12/14 02:52:51;;;;;;;39.78;16.02;;;;;;;-1.05;59.11;99449.22;4416435;32;20109;-95
2022/12/14 02:55:40;;;;;;;41.28;15.38;;;;;;;-1.06;59.11;99447.50;4402393;32;20125;-95
2022/12/14 02:58:12;;;;;;;36.80;15.48;;;;;;;-1.20;59.10;99435.44;4397678;32;20567;-95
2022/12/14 03:00:38;;;;;;;43.33;17.17;;;;;;;-1.35;59.09;99429.34;4394718;32;20063;-96
2022/12/14 03:03:04;;;;;;;43.20;16.77;;;;;;;-1.25;59.09;99430.28;4404240;32;20107;-96
2022/12/14 03:05:32;;;;;;;41.92;14.77;;;;;;;-1.12;59.10;99434.69;4389988;32;20097;-96
2022/12/14 03:08:13;;;;;;;41.58;15.32;;;;;;;-1.19;59.10;99439.69;4404222;32;20231;-95
2022/12/14 03:10:58;;;;;;;42.88;15.82;;;;;;;-1.17;59.10;99435.50;4404650;32;20442;-96
2022/12/14 03:14:08;;;;;;;43.47;15.77;;;;;;;-1.18;59.10;99426.97;4414342;32;20075;-96
2022/12/14 03:16:45;;;;;;;35.97;13.90;;;;;;;-1.17;59.10;99427.84;4418736;32;20118;-94
2022/12/14 03:19:16;;;;;;;38.15;14.65;;;;;;;-1.29;59.10;99423.44;4393065;32;20140;-96
2022/12/14 03:21:45;;;;;;;41.08;15.52;;;;;;;-1.20;59.10;99435.44;4414711;32;20116;-96
2022/12/14 03:24:13;;;;;;;43.87;15.15;;;;;;;-1.17;59.10;99435.50;4390698;32;20097;-96
2022/12/14 03:26:47;;;;;;;40.72;14.75;;;;;;;-1.19;59.10;99432.03;4391256;32;20132;-96
2022/12/14 03:29:22;;;;;;;37.05;12.95;;;;;;;-1.10;59.11;99430.44;4402331;32;20102;-96
2022/12/14 03:39:47;;;;;;;39.20;14.57;;;;;;;-1.07;59.11;99422.81;4408450;32;20100;-96
2022/12/14 03:42:25;;;;;;;39.20;14.35;;;;;;;-0.84;59.12;99414.50;4381460;32;20095;-96
2022/12/14 03:45:39;;;;;;;48.20;16.08;;;;;;;-0.80;59.12;99403.44;4386817;32;20066;-96
2022/12/14 03:48:27;;;;;;;48.22;15.90;;;;;;;-0.98;59.11;99412.66;4416111;32;20089;-96
2022/12/14 03:51:00;;;;;;;37.65;14.38;;;;;;;-0.96;59.11;99402.47;4415254;32;20118;-95
2022/12/14 03:53:34;;;;;;;38.65;14.40;;;;;;;-0.96;59.11;99413.53;4395844;32;20118;-96
2022/12/14 03:59:33;;;;;;;47.78;16.45;;;;;;;-1.08;59.11;99408.34;5169154;26;20049;-95
2022/12/14 04:02:39;;;;;;;45.03;15.02;;;;;;;-0.93;59.12;99400.81;4484713;27;20144;-96
2022/12/14 04:05:38;;;;;;;45.58;17.67;;;;;;;-0.90;59.12;99394.88;4467444;32;20062;-96
2022/12/14 04:08:12;;;;;;;;;;;;;;;-0.90;59.12;99396.56;4467255;32;20050;-95
2022/12/14 04:19:04;;;;;;;46.90;16.40;;;;;;;-0.76;59.13;99388.16;4395168;32;20109;-96
2022/12/14 04:21:48;;;;;;;47.17;16.48;;;;;;;-0.66;59.13;99384.84;4376162;32;20107;-95
2022/12/14 04:27:56;;;;;;;45.15;16.17;;;;;;;-0.71;59.14;99375.41;4429004;32;20119;-94
2022/12/14 04:30:21;;;;;;;47.97;17.10;;;;;;;-0.73;59.13;99361.75;4399575;32;20093;-96
2022/12/14 04:32:52;;;;;;;45.90;15.75;;;;;;;-0.78;59.13;99351.50;4386264;32;20116;-96
2022/12/14 04:35:38;;;;;;;48.85;18.00;;;;;;;-0.68;59.13;99352.44;4395210;32;20131;-95
2022/12/14 04:38:11;;;;;;;49.08;16.45;;;;;;;-0.74;59.12;99348.13;4399633;32;20124;-94
2022/12/14 04:40:39;;;;;;;41.78;16.50;;;;;;;-0.67;59.13;99339.69;4383776;32;20788;-96
2022/12/14 04:43:09;;;;;;;41.17;16.10;;;;;;;-0.50;59.14;99344.00;4409527;32;20474;-93
2022/12/14 04:45:38;;;;;;;49.80;17.23;;;;;;;-0.54;59.14;99334.62;4411223;32;20109;-93
2022/12/14 04:48:25;;;;;;;48.22;16.85;;;;;;;-0.54;59.14;99325.25;4375660;32;20074;-93
2022/12/14 04:50:54;;;;;;;41.63;15.50;;;;;;;-0.44;59.14;99329.59;4412635;32;20090;-92
2022/12/14 04:53:21;;;;;;;44.20;16.10;;;;;;;-0.47;59.15;99319.34;4387822;32;20157;-91
2022/12/14 04:56:04;;;;;;;41.72;16.17;;;;;;;-0.66;59.13;99330.31;4411906;32;20239;-90
2022/12/14 04:58:30;;;;;;;41.13;15.57;;;;;;;-0.45;59.14;99325.31;4399414;32;20102;-93
2022/12/14 05:01:23;;;;;;;39.38;16.37;;;;;;;-0.27;59.16;99332.19;4398456;32;20131;-88
2022/12/14 05:04:36;;;;;;;43.60;16.02;;;;;;;-0.33;59.15;99321.94;4411180;32;20151;-91
2022/12/14 05:07:37;;;;;;;46.13;15.32;;;;;;;-0.32;59.15;99329.63;4418442;32;20101;-91
2022/12/14 05:10:10;;;;;;;34.10;15.20;;;;;;;-0.31;59.15;99344.13;4413275;32;20171;-89
2022/12/14 05:12:46;;;;;;;39.00;15.40;;;;;;;-0.36;59.15;99338.13;4413370;32;20127;-94
2022/12/14 05:15:31;;;;;;;41.78;15.68;;;;;;;-0.28;59.16;99343.28;4412921;32;20054;-96
2022/12/14 05:18:01;;;;;;;42.83;16.48;;;;;;;-0.19;59.16;99348.47;4407737;32;20106;-91
2022/12/14 05:20:26;;;;;;;40.23;16.00;;;;;;;-0.22;59.15;99347.59;4398347;32;20194;-91
2022/12/14 05:22:52;;;;;;;37.58;15.55;;;;;;;-0.14;59.17;99351.03;4411113;32;20089;-90
2022/12/14 05:25:17;;;;;;;38.05;15.63;;;;;;;-0.11;59.17;99339.09;4408859;32;20116;-91
2022/12/14 05:27:43;;;;;;;34.53;14.77;;;;;;;-0.26;59.16;99331.34;4411286;32;20131;-91
2022/12/14 05:30:09;;;;;;;43.63;16.77;;;;;;;-0.27;59.16;99333.91;4411107;32;20114;-91
2022/12/14 05:32:34;;;;;;;40.00;14.35;;;;;;;-0.17;59.16;99330.56;4386873;32;20123;-93
2022/12/14 05:35:01;;;;;;;38.42;15.23;;;;;;;-0.04;59.17;99322.06;4395211;32;20464;-93
2022/12/14 05:37:26;;;;;;;40.08;15.75;;;;;;;-0.09;59.16;99309.28;4398276;32;20114;-94
2022/12/14 05:39:52;;;;;;;39.33;14.05;;;;;;;-0.13;59.17;99311.81;4411431;32;20514;-93
2022/12/14 05:42:17;;;;;;;37.75;14.93;;;;;;;-0.09;59.16;99310.97;4387537;32;20149;-93
2022/12/14 05:44:42;;;;;;;36.67;14.50;;;;;;;-0.05;59.17;99316.09;4385973;32;20155;-93
2022/12/14 05:47:08;;;;;;;32.45;13.38;;;;;;;-0.12;59.17;99311.81;4398066;32;20507;-93
2022/12/14 05:49:33;;;;;;;34.05;14.27;;;;;;;-0.04;59.17;99317.81;4382027;32;20146;-92
2022/12/14 05:51:59;;;;;;;34.78;14.13;;;;;;;-0.06;59.17;99323.78;4398108;32;20101;-91
2022/12/14 05:54:24;;;;;;;29.42;13.00;;;;;;;0.12;59.18;99316.16;4398489;32;20148;-93
2022/12/14 05:56:50;;;;;;;36.45;13.77;;;;;;;0.16;59.18;99314.47;4412334;32;20157;-91
2022/12/14 05:59:16;;;;;;;29.27;13.45;;;;;;;0.08;59.17;99300.81;4387561;32;20105;-93
2022/12/14 06:01:42;;;;;;;29.90;12.80;;;;;;;0.01;59.17;99291.41;4413102;32;20116;-94
2022/12/14 06:04:07;;;;;;;34.63;13.95;;;;;;;-0.02;59.17;99280.28;4411838;32;20147;-95
2022/12/14 06:06:33;;;;;;;32.00;12.80;;;;;;;-0.15;59.16;99288.78;4372792;32;20114;-88
2022/12/14 06:08:58;;;;;;;28.17;12.98;;;;;;;-0.18;59.16;99280.25;4402052;32;20158;-88
2022/12/14 06:11:23;;;;;;;31.52;12.88;;;;;;;0.02;59.18;99278.63;4397189;32;21424;-90
2022/12/14 06:13:49;;;;;;;26.58;11.68;;;;;;;0.03;59.17;99269.25;4405635;32;20396;-87
2022/12/14 06:16:18;;;;;;;29.30;12.75;;;;;;;-0.16;59.16;99264.06;4411587;32;20171;-87
2022/12/14 06:18:45;;;;;;;30.05;12.68;;;;;;;-0.13;59.17;99276.84;4412159;32;20114;-88
2022/12/14 06:21:12;;;;;;;36.95;14.15;;;;;;;-0.05;59.17;99290.50;4385832;32;20116;-87
2022/12/14 06:23:37;;;;;;;34.03;14.02;;;;;;;-0.02;59.16;99290.53;4378649;32;20102;-88
2022/12/14 06:26:03;;;;;;;30.95;11.68;;;;;;;0.09;59.17;99282.03;4376607;32;20156;-87
2022/12/14 06:28:28;;;;;;;33.75;12.07;;;;;;;0.10;59.18;99294.84;4412381;32;20180;-88
2022/12/14 06:30:53;;;;;;;27.20;11.95;;;;;;;0.05;59.18;99300.78;4393939;32;20136;-88
2022/12/14 06:33:19;;;;;;;27.85;11.82;;;;;;;-0.04;59.17;99301.59;4409716;32;20178;-88
2022/12/14 06:35:45;;;;;;;31.33;13.27;;;;;;;-0.05;59.17;99281.97;4384821;32;20159;-87
2022/12/14 06:38:11;;;;;;;25.42;11.15;;;;;;;0.11;59.18;99260.72;4397506;32;20113;-88
2022/12/14 06:40:36;;;;;;;27.83;12.37;;;;;;;-0.07;59.16;99276.00;4381759;32;20463;-87
2022/12/14 06:43:01;;;;;;;23.33;11.10;;;;;;;-0.04;59.17;99289.66;4412654;32;20136;-88
2022/12/14 06:45:28;;;;;;;29.33;12.32;;;;;;;-0.07;59.16;99291.38;4398435;32;20137;-88
2022/12/14 06:47:53;;;;;;;25.58;11.45;;;;;;;0.03;59.17;99297.38;4397835;32;20490;-88
2022/12/14 06:50:18;;;;;;;28.10;12.07;;;;;;;0.05;59.17;99293.97;4403401;32;20133;-88
2022/12/14 06:52:47;;;;;;;26.33;12.27;;;;;;;-0.02;59.17;99282.00;4412638;32;20451;-88
2022/12/14 06:55:13;;;;;;;25.10;11.45;;;;;;;0.09;59.18;99277.78;4387311;32;20078;-88
2022/12/14 06:57:38;;;;;;;25.77;11.63;;;;;;;0.06;59.17;99276.91;4384466;32;20102;-87
2022/12/14 07:00:04;;;;;;;29.55;12.00;;;;;;;0.06;59.17;99274.34;4410492;32;20413;-87
2022/12/14 07:02:30;;;;;;;24.63;11.63;;;;;;;0.18;59.18;99279.50;4423216;32;20093;-88
2022/12/14 07:04:55;;;;;;;24.85;11.12;;;;;;;0.17;59.18;99265.84;4412167;32;20176;-88
2022/12/14 07:07:20;;;;;;;23.15;10.35;;;;;;;0.20;59.18;99254.75;4412422;32;20165;-87
2022/12/14 07:09:46;;;;;;;27.45;11.25;;;;;;;-0.04;59.17;99263.22;4411538;32;20133;-88
2022/12/14 07:12:11;;;;;;;26.42;11.40;;;;;;;0.11;59.18;99257.31;4405302;32;20094;-87
2022/12/14 07:14:37;;;;;;;24.02;10.57;;;;;;;0.06;59.17;99259.84;4396123;32;20145;-87
2022/12/14 07:17:02;;;;;;;22.60;11.10;;;;;;;0.12;59.18;99266.69;4403375;32;20189;-87
2022/12/14 07:19:27;;;;;;;24.40;11.20;;;;;;;0.12;59.18;99267.53;4410877;32;20169;-88
2022/12/14 07:21:53;;;;;;;27.30;11.95;;;;;;;-0.02;59.17;99258.97;4411157;32;20137;-88
2022/12/14 07:24:18;;;;;;;24.65;11.45;;;;;;;0.22;59.18;99251.34;4383320;32;20158;-87
2022/12/14 07:26:44;;;;;;;28.35;12.07;;;;;;;0.13;59.18;99245.38;4398333;32;20151;-88
2022/12/14 07:29:10;;;;;;;25.92;11.93;;;;;;;0.06;59.17;99238.53;4409112;32;20143;-88
2022/12/14 07:31:36;;;;;;;30.15;12.07;;;;;;;0.20;59.18;99234.28;4407920;32;20074;-88
2022/12/14 07:34:01;;;;;;;24.48;11.95;;;;;;;0.02;59.18;99239.37;4396057;32;20166;-88
2022/12/14 07:36:28;;;;;;;26.00;12.15;;;;;;;0.24;59.19;99239.44;4407788;32;20125;-88
2022/12/14 07:38:54;;;;;;;24.98;10.68;;;;;;;0.32;59.19;99247.09;4411208;32;20133;-87
2022/12/14 07:41:24;;;;;;;24.50;11.02;;;;;;;0.21;59.18;99259.88;4393936;32;20102;-87
2022/12/14 07:43:50;;;;;;;28.12;12.02;;;;;;;0.05;59.17;99270.09;4398394;32;20101;-88
2022/12/14 07:46:17;;;;;;;28.30;12.43;;;;;;;0.20;59.18;99270.09;4389792;32;20085;-87
2022/12/14 07:48:44;;;;;;;25.50;11.95;;;;;;;0.40;59.20;99271.00;4396341;32;20093;-88
2022/12/14 07:51:10;;;;;;;23.12;11.27;;;;;;;0.38;59.20;99275.25;4398576;32;20078;-88
2022/12/14 07:53:36;;;;;;;27.37;12.05;;;;;;;0.41;59.20;99274.41;4410930;32;20838;-87
2022/12/14 07:56:13;;;;;;;26.23;11.88;;;;;;;0.45;59.20;99279.53;4396759;32;20771;-87
2022/12/14 07:58:38;;;;;;;29.15;12.55;;;;;;;0.46;59.20;99282.94;4383833;32;20108;-87
2022/12/14 08:01:17;;;;;;;29.50;13.55;;;;;;;0.59;59.21;99282.97;4395761;32;20106;-87
2022/12/14 08:03:53;;;;;;;28.50;11.50;;;;;;;0.41;59.19;99282.94;4402405;32;20113;-87
2022/12/14 08:06:19;;;;;;;36.25;14.23;;;;;;;0.45;59.20;99284.66;4410329;32;20105;-87
2022/12/14 08:08:44;;;;;;;31.87;12.20;;;;;;;0.38;59.20;99282.09;4410770;32;20085;-88
2022/12/14 08:11:10;;;;;;;33.75;13.32;;;;;;;0.41;59.20;99265.03;4410854;32;20112;-88
2022/12/14 08:13:37;;;;;;;28.62;13.62;;;;;;;0.54;59.20;99278.69;4411021;32;20171;-87
2022/12/14 08:16:08;;;;;;;29.05;13.10;;;;;;;0.59;59.21;99269.31;4411057;32;20387;-88
2022/12/14 08:18:34;;;;;;;31.85;13.00;;;;;;;0.52;59.20;99257.38;4386733;32;20154;-88
2022/12/14 08:21:00;;;;;;;32.97;13.15;;;;;;;0.40;59.20;99263.31;4393930;32;20093;-88
2022/12/14 08:23:25;;;;;;;27.25;12.13;;;;;;;0.44;59.19;99259.03;4395401;32;20144;-89
2022/12/14 08:25:52;;;;;;;28.30;11.60;;;;;;;0.26;59.19;99271.00;4404951;32;20129;-88
2022/12/14 08:28:18;;;;;;;30.92;12.07;;;;;;;0.40;59.20;99275.25;4397090;32;20109;-87
2022/12/14 08:30:43;;;;;;;31.98;13.05;;;;;;;0.45;59.20;99281.22;4395128;32;20167;-88
2022/12/14 08:33:09;;;;;;;32.63;12.73;;;;;;;0.34;59.19;99265.88;4397161;32;20126;-87
2022/12/14 08:35:34;;;;;;;27.73;12.07;;;;;;;0.38;59.20;99265.03;4410484;32;20097;-87
2022/12/14 08:38:00;;;;;;;28.42;12.50;;;;;;;0.43;59.19;99263.31;4393709;32;20131;-87
2022/12/14 08:40:25;;;;;;;27.67;12.00;;;;;;;0.44;59.19;99243.69;4410308;32;20089;-87
2022/12/14 08:42:51;;;;;;;27.23;11.43;;;;;;;0.49;59.20;99247.13;4387791;32;21687;-87
2022/12/14 08:45:16;;;;;;;29.77;10.85;;;;;;;0.38;59.20;99241.97;4398103;32;20127;-88
2022/12/14 08:47:42;;;;;;;27.48;11.23;;;;;;;0.25;59.19;99230.91;4410562;32;20114;-87
2022/12/14 08:50:08;;;;;;;23.52;11.68;;;;;;;0.39;59.20;99243.69;4382993;32;20090;-87
2022/12/14 08:52:33;;;;;;;28.95;12.15;;;;;;;0.52;59.21;99237.72;4395030;32;20144;-88
2022/12/14 08:54:59;;;;;;;30.45;12.65;;;;;;;0.60;59.21;99217.22;4395777;32;20098;-87
2022/12/14 08:57:24;;;;;;;26.80;13.10;;;;;;;0.54;59.20;99224.94;4396635;32;20133;-87
2022/12/14 08:59:50;;;;;;;29.17;12.20;;;;;;;0.64;59.21;99221.50;4397705;32;20116;-87
2022/12/14 09:02:15;;;;;;;27.55;11.77;;;;;;;0.82;59.22;99224.03;4393089;32;20140;-88
2022/12/14 09:04:41;;;;;;;27.90;12.13;;;;;;;0.67;59.21;99220.62;4397298;32;20133;-88
2022/12/14 09:07:06;;;;;;;29.77;11.43;;;;;;;0.61;59.20;99224.91;4410013;32;20425;-87
2022/12/14 09:09:34;;;;;;;30.42;11.48;;;;;;;0.68;59.21;99220.62;4409922;32;20139;-88
2022/12/14 09:12:02;;;;;;;27.48;11.82;;;;;;;0.71;59.21;99217.22;4390174;32;20106;-87
2022/12/14 09:14:28;;;;;;;26.95;12.00;;;;;;;0.72;59.21;99224.06;4396814;32;20517;-87
2022/12/14 09:16:53;;;;;;;30.25;12.32;;;;;;;0.86;59.21;99218.06;4382704;32;20463;-87
2022/12/14 09:19:19;;;;;;;29.70;11.20;;;;;;;0.92;59.23;99222.31;4397077;32;20137;-86
2022/12/14 09:21:44;;;;;;;25.08;11.60;;;;;;;0.85;59.22;99216.34;4407224;32;20109;-86
2022/12/14 09:24:10;;;;;;;24.00;10.88;;;;;;;0.85;59.22;99224.03;4388249;32;20133;-88
2022/12/14 09:26:36;;;;;;;28.00;11.77;;;;;;;0.97;59.23;99227.44;4399396;32;20101;-88
2022/12/14 09:29:01;;;;;;;29.08;11.90;;;;;;;0.83;59.22;99212.94;4409534;32;20488;-87
2022/12/14 09:31:26;;;;;;;29.42;11.82;;;;;;;0.90;59.23;99209.50;4393808;32;20147;-87
2022/12/14 09:33:53;;;;;;;28.05;10.98;;;;;;;1.09;59.23;99218.00;4391162;32;20139;-87
2022/12/14 09:36:20;;;;;;;32.35;11.88;;;;;;;1.00;59.23;99200.09;4396895;32;20066;-88
2022/12/14 09:38:46;;;;;;;30.70;11.48;;;;;;;1.16;59.24;99203.44;4411789;32;20082;-88
2022/12/14 09:41:32;;;;;;;31.23;11.25;;;;;;;1.24;59.24;99201.75;4411706;32;20235;-88
2022/12/14 09:44:22;;;;;;;25.85;11.40;;;;;;;1.07;59.23;99195.81;4411813;32;20463;-88
2022/12/14 09:46:53;;;;;;;40.47;19.45;;;;;;;1.14;59.23;99192.34;4394527;32;20438;-88
2022/12/14 09:49:30;;;;;;;27.35;11.82;;;;;;;1.03;59.23;99178.75;4398877;32;20208;-88
2022/12/14 09:52:00;;;;;;;32.63;12.07;;;;;;;1.19;59.24;99162.47;4387034;32;20126;-88
2022/12/14 09:54:28;;;;;;;28.10;11.80;;;;;;;0.93;59.22;99163.37;4384471;32;20172;-88
2022/12/14 09:56:53;;;;;;;29.60;11.93;;;;;;;1.17;59.24;99164.16;4402782;32;20080;-88
2022/12/14 09:59:19;;;;;;;24.87;11.10;;;;;;;1.28;59.25;99159.00;4410197;32;20110;-88
2022/12/14 10:01:54;;;;;;;29.17;12.40;;;;;;;1.44;59.25;99148.66;4411762;32;20773;-88
2022/12/14 10:04:33;;;;;;;27.40;12.13;;;;;;;1.28;59.25;99146.19;4399103;32;20105;-89
2022/12/14 10:07:13;;;;;;;27.70;12.05;;;;;;;1.44;59.25;99165.78;4387019;32;20446;-88
2022/12/14 10:09:58;;;;;;;39.80;16.98;;;;;;;1.47;59.25;99158.91;4411360;32;20110;-88
2022/12/14 10:12:26;;;;;;;30.67;13.35;;;;;;;1.50;59.26;99158.88;4425883;32;20102;-88
2022/12/14 10:15:01;;;;;;;29.42;12.43;;;;;;;1.46;59.25;99156.34;4411502;32;20759;-88
2022/12/14 10:17:54;;;;;;;30.65;13.07;;;;;;;1.49;59.26;99161.47;4411598;32;20447;-88
2022/12/14 10:20:24;;;;;;;25.98;12.18;;;;;;;1.49;59.26;99159.75;4411657;32;20173;-88
2022/12/14 10:22:51;;;;;;;33.42;11.95;;;;;;;1.49;59.26;99149.50;4411424;32;20171;-88
2022/12/14 10:25:28;;;;;;;28.30;11.45;;;;;;;1.63;59.27;99128.88;4411844;32;20459;-89
2022/12/14 10:28:01;;;;;;;27.85;11.85;;;;;;;1.54;59.26;99127.22;4411177;32;20783;-89
2022/12/14 10:30:26;;;;;;;25.83;12.02;;;;;;;1.50;59.26;99127.25;4410988;32;20478;-88
2022/12/14 10:33:15;;;;;;;27.52;11.00;;;;;;;1.48;59.25;99126.41;4419798;32;20118;-89
2022/12/14 10:35:52;;;;;;;28.58;10.23;;;;;;;1.56;59.27;99118.69;4413703;32;20102;-87
2022/12/14 10:38:28;;;;;;;30.52;11.80;;;;;;;1.41;59.26;99120.44;4398139;32;20157;-87
2022/12/14 10:40:58;;;;;;;27.27;12.50;;;;;;;1.50;59.26;99106.75;4412100;32;20066;-88
2022/12/14 10:43:47;;;;;;;27.00;11.07;;;;;;;1.46;59.25;99095.66;4399533;32;20165;-87
2022/12/14 10:46:28;;;;;;;29.42;11.15;;;;;;;1.64;59.27;99091.25;4404486;32;20635;-87
2022/12/14 10:49:15;;;;;;;27.52;12.30;;;;;;;1.56;59.27;99095.59;4409416;32;20085;-89
2022/12/14 10:51:49;;;;;;;27.92;11.20;;;;;;;1.59;59.26;99088.72;4404492;32;20113;-88
2022/12/14 10:54:25;;;;;;;29.05;11.30;;;;;;;1.73;59.27;99088.66;4396130;32;20136;-88
2022/12/14 10:56:51;;;;;;;25.67;10.38;;;;;;;1.66;59.27;99080.16;4396311;32;20125;-88
2022/12/14 10:59:20;;;;;;;26.45;11.95;;;;;;;1.54;59.26;99090.47;4409223;32;20374;-87
2022/12/14 11:01:50;;;;;;;23.73;9.97;;;;;;;1.69;59.26;99085.25;4411533;32;20098;-88
2022/12/14 11:04:28;;;;;;;24.83;10.55;;;;;;;1.60;59.26;99084.44;4394713;32;20082;-88
2022/12/14 11:06:54;;;;;;;22.98;10.48;;;;;;;1.62;59.26;99100.66;4391618;32;20122;-88
2022/12/14 11:09:20;;;;;;;22.70;10.20;;;;;;;1.69;59.27;99089.53;4386047;32;20109;-87
2022/12/14 11:11:46;;;;;;;24.27;10.13;;;;;;;1.76;59.27;99092.03;4411261;32;20132;-89
2022/12/14 11:14:14;;;;;;;26.67;10.35;;;;;;;1.65;59.27;99085.25;4411180;32;20145;-88
2022/12/14 11:16:40;;;;;;;25.08;10.63;;;;;;;1.70;59.27;99086.94;4401444;32;20097;-88
2022/12/14 11:19:14;;;;;;;31.60;10.25;;;;;;;1.72;59.27;99074.13;4396374;32;20126;-88
2022/12/14 11:21:40;;;;;;;24.95;10.68;;;;;;;1.66;59.27;99069.03;4395946;32;20205;-88
2022/12/14 11:24:05;;;;;;;22.17;9.55;;;;;;;1.66;59.26;99058.78;4405140;32;20502;-87
2022/12/14 11:26:39;;;;;;;25.58;10.00;;;;;;;1.62;59.26;99068.19;4386018;32;20112;-88
2022/12/14 11:29:06;;;;;;;18.35;9.50;;;;;;;1.54;59.25;99059.69;4386368;32;20467;-88
2022/12/14 11:31:39;;;;;;;28.30;11.20;;;;;;;1.60;59.26;99056.22;4396364;32;20086;-88
2022/12/14 11:34:05;;;;;;;29.75;10.85;;;;;;;1.62;59.26;99052.78;4403746;32;20418;-88
2022/12/14 11:36:38;;;;;;;23.55;9.95;;;;;;;1.64;59.27;99045.06;4397624;32;20145;-88
2022/12/14 11:39:12;;;;;;;23.25;10.30;;;;;;;1.76;59.27;99034.75;4398370;32;20089;-88
2022/12/14 11:41:42;;;;;;;23.02;9.30;;;;;;;1.72;59.27;99033.06;4411035;32;20643;-88
2022/12/14 11:44:13;;;;;;;22.27;9.88;;;;;;;1.63;59.27;99028.84;4407841;32;20109;-85
2022/12/14 11:47:00;;;;;;;24.15;9.75;;;;;;;1.82;59.27;99030.41;4404715;32;20121;-88
2022/12/14 11:49:33;;;;;;;29.50;12.05;;;;;;;1.93;59.29;99025.19;4398785;32;20105;-85
2022/12/14 11:52:04;;;;;;;25.85;10.88;;;;;;;1.93;59.29;99026.91;4395849;32;20070;-88
2022/12/14 11:54:34;;;;;;;26.48;9.85;;;;;;;1.96;59.28;99014.91;4400633;32;20789;-87
2022/12/14 11:57:10;;;;;;;28.17;11.32;;;;;;;1.94;59.28;98998.66;4392962;32;20174;-87
2022/12/14 11:59:57;;;;;;;25.27;10.45;;;;;;;2.09;59.29;99002.78;4401088;32;20105;-87
2022/12/14 12:02:27;;;;;;;25.20;10.45;;;;;;;1.94;59.29;98996.09;4398287;32;20097;-88
2022/12/14 12:05:02;;;;;;;26.67;10.50;;;;;;;2.04;59.29;98991.72;4395926;32;20097;-88